VECCVEAT

Guest
Details From VECC - NETAJI SUBHASH CHANDRA BOSE INTL
To VEAT - AGARTALA
Flight Number -
Tags generated
Created
Modified
Stats Distance 172 nm / 319 km
Max Altitude 19,800 ft / 6,035 m
Waypoints 5
Social Downloads 0
Likes 0
Share VATSIM

Download

Looking for another format? Having issues loading an existing format? Contact us
Advertisement - Login to hide

Notes

Basic altitude profile: - Ascent Rate: 2500ft/min - Ascent Speed: 250kts - Cruise Altitude: 11000ft - Cruise Speed: 420kts - Descent Rate: 1500ft/min - Descent Speed: 250kts Options: - Use NATs: no - Use PACOTS: no - Use low airways: yes - Use high airways: no

Route

VECC BEMAK A462 IKOGU VEAT

ID Type Via Altitude Latitude Longitude Leg Dist Tot Dist Heading (true) Name
O VECC APT - 0 ft / 0 m 22.65562˚ 88.44686˚ - 0 nm - NETAJI SUBHASH CHANDRA BOSE INTL
BEMAK FIX - 9,600 ft / 2,926 m 22.92738˚ 88.89893˚ 29 nm 29 nm 57° / 57° -
CEA50 FIX A462 (AWY-LO) 17,900 ft / 5,456 m 23.10083˚ 89.21389˚ 20 nm 50 nm 59° / 59° -
IKOGU FIX A462 (AWY-LO) 19,800 ft / 6,035 m 23.37750˚ 89.64722˚ 29 nm 79 nm 55° / 55° -
O VEAT APT - 0 ft / 0 m 23.88698˚ 91.24045˚ 92 nm 172 nm 70° / 71° AGARTALA

Altitude Profile

Advertisement - Login to hide

Weather


0- 5 10 15 20 25 30 35+ Temperature / ° C

Clouds and Precipitation
Forecast for 2017-12-11 12:00 UTC. Updated 37 minutes ago

Ground ~20,000 ft ~40,000 ft Winds

VECC

Details ICAO VECC (CCU)
Name NETAJI SUBHASH CHANDRA BOSE INTL
Region India
Timezone Asia/Kolkata (UTC+5.5)
Stats Elevation 16 ft / 5 m (AMSL)
Location 22.655618° 88.446856°
Runways 2
Magnetic Variation 0.226° W

METAR

VECC 111130Z 00000KT 3500 HZ FEW020 26/19 Q1011 NOSIG

Decode

TAF

TAF VECC 111100Z 1112/1218 30005KT 3200 HZ FEW020 BECMG 1118/1120 2200 BR BECMG 1122/1124 00000KT 1000 MIFG BECMG 1202/1204 27005KT 2000 BR BECMG 1205/1207 3500 HZ BECMG 1215/1217 2500 HZ

Decode

Departure Runways

ID Width Length Bearing (true) Bearing (mag) Surface Threshold Offset Overrun Length
01L 151 ft / 46 m 9,329 ft / 2,843 m 6.17° 6.40° Asphalt 0 ft / 0 m 0 ft / 0 m
01R 151 ft / 46 m 11,790 ft / 3,594 m 6.20° 6.43° Asphalt 0 ft / 0 m 213 ft / 65 m
19L 151 ft / 46 m 11,790 ft / 3,594 m 186.20° 186.43° Asphalt 1,211 ft / 369 m 682 ft / 208 m
19R 151 ft / 46 m 9,329 ft / 2,843 m 186.17° 186.40° Asphalt 764 ft / 233 m 748 ft / 228 m

VEAT

Details ICAO VEAT (IXA)
Name AGARTALA
Region India
Timezone Asia/Kolkata (UTC+5.5)
Stats Elevation 46 ft / 14 m (AMSL)
Location 23.886978° 91.240448°
Runways 1
Magnetic Variation 0.274° W

METAR

VEAT 111130Z 28004KT 2200 BR SCT008 SCT016 OVC090 23/22 Q1011 NOSIG

Decode

TAF

Not found

Destination Runways

ID Width Length Bearing (true) Bearing (mag) Surface Threshold Offset Overrun Length
18 148 ft / 45 m 7,522 ft / 2,293 m 184.12° 184.39° Asphalt 440 ft / 134 m 200 ft / 61 m
36 148 ft / 45 m 7,522 ft / 2,293 m 4.12° 4.39° Asphalt 0 ft / 0 m 200 ft / 61 m

Popular Alternatives